createdAt,value
2018-07-08T00:04:50.901Z,3.30
2018-07-08T00:09:53.775Z,4.50
2018-07-08T00:14:56.438Z,2.77
2018-07-08T00:19:59.099Z,3.03
2018-07-08T00:25:01.814Z,3.00
2018-07-08T00:30:04.862Z,3.93
2018-07-08T00:35:07.531Z,3.90
2018-07-08T00:40:10.303Z,5.83
2018-07-08T00:45:12.976Z,3.37
2018-07-08T00:50:15.632Z,4.33
2018-07-08T00:55:18.259Z,4.30
2018-07-08T01:00:20.872Z,7.70
2018-07-08T01:05:23.786Z,4.67
2018-07-08T01:10:26.348Z,3.60
2018-07-08T01:15:29.108Z,4.33
2018-07-08T01:20:32.142Z,2.53
2018-07-08T01:25:34.770Z,4.43
2018-07-08T01:30:37.620Z,3.77
2018-07-08T01:35:40.515Z,3.50
2018-07-08T01:40:43.984Z,3.20
2018-07-08T01:45:46.604Z,3.10
2018-07-08T01:50:49.305Z,3.40
2018-07-08T01:55:53.459Z,5.50
2018-07-08T02:00:56.767Z,4.53
2018-07-08T02:05:59.574Z,4.23
2018-07-08T02:11:02.176Z,5.40
2018-07-08T02:16:06.323Z,3.23
2018-07-08T02:21:09.214Z,5.23
2018-07-08T02:26:11.782Z,3.00
2018-07-08T02:31:14.485Z,3.30
2018-07-08T02:36:17.694Z,3.80
2018-07-08T02:41:21.119Z,5.93
2018-07-08T02:46:23.807Z,2.90
2018-07-08T02:51:26.652Z,4.40
2018-07-08T02:56:29.278Z,5.77
2018-07-08T03:01:32.949Z,5.60
2018-07-08T03:06:35.649Z,3.63
2018-07-08T03:11:39.668Z,3.60
2018-07-08T03:16:42.310Z,3.13
2018-07-08T03:21:45.986Z,2.83
2018-07-08T03:31:57.680Z,3.40
2018-07-08T03:37:00.462Z,3.73
2018-07-08T03:42:03.162Z,4.73
2018-07-08T03:47:05.968Z,4.20
2018-07-08T03:52:08.618Z,5.30
2018-07-08T03:57:11.218Z,2.90
2018-07-08T04:02:14.286Z,4.93
2018-07-08T04:07:17.179Z,3.37
2018-07-08T04:12:20.487Z,3.27
2018-07-08T04:17:23.377Z,3.93
2018-07-08T04:22:25.948Z,2.63
2018-07-08T04:27:28.612Z,5.10
2018-07-08T04:32:31.288Z,3.67
2018-07-08T04:37:33.997Z,2.43
2018-07-08T04:42:36.680Z,3.00
2018-07-08T04:47:39.356Z,2.80
2018-07-08T04:52:41.996Z,2.63
2018-07-08T04:57:44.631Z,2.70
2018-07-08T05:02:47.233Z,2.10
2018-07-08T05:07:49.890Z,3.40
2018-07-08T05:12:52.540Z,4.80
2018-07-08T05:17:55.250Z,2.50
2018-07-08T05:22:57.926Z,4.67
2018-07-08T05:28:01.628Z,3.00
2018-07-08T05:33:04.948Z,4.50
2018-07-08T05:38:08.659Z,2.70
2018-07-08T05:43:12.380Z,3.10
2018-07-08T05:48:16.170Z,4.13
2018-07-08T05:53:19.190Z,4.90
2018-07-08T05:58:22.645Z,3.70
2018-07-08T06:03:25.965Z,3.60
2018-07-08T06:08:28.680Z,3.27
2018-07-08T06:13:35.081Z,2.97
2018-07-08T06:18:40.833Z,4.57
2018-07-08T06:23:46.047Z,3.23
2018-07-08T06:28:51.083Z,4.53
2018-07-08T06:33:54.616Z,4.57
2018-07-08T06:38:59.144Z,7.67
2018-07-08T06:44:01.772Z,3.43
2018-07-08T06:49:04.331Z,4.67
2018-07-08T06:54:08.923Z,4.53
2018-07-08T06:59:14.176Z,2.87
2018-07-08T07:04:17.871Z,2.40
2018-07-08T07:09:20.536Z,4.00
2018-07-08T07:14:23.308Z,2.77
2018-07-08T07:19:26.884Z,3.03
2018-07-08T07:24:32.085Z,4.57
2018-07-08T07:29:34.971Z,4.80
2018-07-08T07:34:39.660Z,2.67
2018-07-08T07:39:43.535Z,2.13
2018-07-08T07:44:47.176Z,3.53
2018-07-08T07:49:51.102Z,2.40
2018-07-08T07:54:57.567Z,5.07
2018-07-08T08:00:00.610Z,2.40
2018-07-08T08:05:03.290Z,2.33
2018-07-08T08:10:06.014Z,3.23
2018-07-08T08:15:09.215Z,2.43
2018-07-08T08:20:13.052Z,4.80
2018-07-08T08:25:16.625Z,4.50
2018-07-08T08:30:20.372Z,2.90
2018-07-08T08:35:25.624Z,2.40
2018-07-08T08:40:30.935Z,1.73
2018-07-08T08:45:38.730Z,1.87
2018-07-08T08:50:42.549Z,2.10
2018-07-08T08:55:48.240Z,5.43
2018-07-08T09:00:51.660Z,1.23
2018-07-08T09:05:55.074Z,1.23
2018-07-08T09:11:02.028Z,6.83
2018-07-08T09:16:06.466Z,1.90
2018-07-08T09:21:10.316Z,3.83
2018-07-08T09:26:13.096Z,1.33
2018-07-08T09:31:15.863Z,1.33
2018-07-08T09:36:18.808Z,5.97
2018-07-08T09:41:23.874Z,1.80
2018-07-08T09:46:29.085Z,1.43
2018-07-08T09:51:32.434Z,2.10
2018-07-08T09:56:39.990Z,1.60
2018-07-08T10:01:44.846Z,4.37
2018-07-08T10:06:48.116Z,1.83
2018-07-08T10:11:52.647Z,1.60
2018-07-08T10:16:57.647Z,1.83
2018-07-08T10:22:00.117Z,1.50
2018-07-08T10:27:02.603Z,1.27
2018-07-08T10:32:05.093Z,1.00
2018-07-08T10:37:07.581Z,0.80
2018-07-08T10:42:10.062Z,0.77
2018-07-08T10:47:12.554Z,1.43
2018-07-08T10:52:15.032Z,1.53
2018-07-08T10:57:17.517Z,1.57
2018-07-08T11:02:20.004Z,1.33
2018-07-08T11:07:22.489Z,0.80
2018-07-08T11:12:24.975Z,0.97
2018-07-08T11:17:28.226Z,1.23
2018-07-08T11:22:30.700Z,0.90
2018-07-08T11:27:33.188Z,1.90
2018-07-08T11:32:36.433Z,1.20
2018-07-08T11:37:38.920Z,1.43
2018-07-08T11:42:41.401Z,1.20
2018-07-08T11:47:43.892Z,2.50
2018-07-08T11:52:47.133Z,0.90
2018-07-08T11:57:50.737Z,1.37
2018-07-08T12:02:53.350Z,1.37
2018-07-08T12:07:57.115Z,1.00
2018-07-08T12:12:59.789Z,1.57
2018-07-08T12:18:05.824Z,1.10
2018-07-08T12:23:12.530Z,0.83
2018-07-08T12:28:18.543Z,1.70
2018-07-08T12:33:21.460Z,1.60
2018-07-08T12:38:27.460Z,3.83
2018-07-08T12:43:31.294Z,1.53
2018-07-08T12:48:37.333Z,0.90
2018-07-08T12:53:40.109Z,1.20
2018-07-08T12:58:43.594Z,1.43
2018-07-08T13:03:48.790Z,1.33
2018-07-08T13:08:53.880Z,1.93
2018-07-08T13:14:00.163Z,1.83
2018-07-08T13:19:05.301Z,2.00
2018-07-08T13:24:07.966Z,3.50
2018-07-08T13:29:11.563Z,0.90
2018-07-08T13:34:19.383Z,0.90
2018-07-08T13:39:24.699Z,4.73
2018-07-08T13:44:28.917Z,1.13
2018-07-08T13:49:32.379Z,1.60
2018-07-08T13:54:35.855Z,1.40
2018-07-08T13:59:39.907Z,1.70
2018-07-08T14:04:49.095Z,1.27
2018-07-08T14:09:52.220Z,1.40
2018-07-08T14:14:56.396Z,1.27
2018-07-08T14:20:02.200Z,1.67
2018-07-08T14:25:05.462Z,1.10
2018-07-08T14:30:08.967Z,1.40
2018-07-08T14:35:15.031Z,1.87
2018-07-08T14:45:25.948Z,1.73
2018-07-08T14:55:42.036Z,2.10
2018-07-08T15:00:46.797Z,1.73
2018-07-08T15:05:51.002Z,2.60
2018-07-08T15:10:55.050Z,2.70
2018-07-08T15:15:58.993Z,2.17
2018-07-08T15:21:04.497Z,1.77
2018-07-08T15:26:09.218Z,2.43
2018-07-08T15:31:17.524Z,1.57
2018-07-08T15:36:27.055Z,1.23
2018-07-08T15:41:32.160Z,1.73
2018-07-08T15:46:35.662Z,1.57
2018-07-08T15:51:44.081Z,1.67
2018-07-08T15:56:48.283Z,3.40
2018-07-08T16:01:54.231Z,1.70
2018-07-08T16:06:57.931Z,8.13
2018-07-08T16:12:01.981Z,4.33
2018-07-08T16:17:05.459Z,2.03
2018-07-08T16:22:10.543Z,2.33
2018-07-08T16:27:16.298Z,4.57
2018-07-08T16:32:19.078Z,2.97
2018-07-08T16:37:23.140Z,1.70
2018-07-08T16:42:28.366Z,3.33
2018-07-08T16:47:31.845Z,2.63
2018-07-08T16:52:36.316Z,16.87
2018-07-08T16:57:39.151Z,8.93
2018-07-08T17:02:42.283Z,15.87
2018-07-08T17:07:46.427Z,10.70
2018-07-08T17:12:49.075Z,4.13
2018-07-08T17:17:51.666Z,2.10
2018-07-08T17:22:55.084Z,2.87
2018-07-08T17:27:57.754Z,1.90
2018-07-08T17:33:01.422Z,2.50
2018-07-08T17:38:04.029Z,3.27
2018-07-08T17:43:08.044Z,4.20
2018-07-08T17:48:10.581Z,1.47
2018-07-08T17:53:13.187Z,1.90
2018-07-08T17:58:15.839Z,2.57
2018-07-08T18:03:18.639Z,3.23
2018-07-08T18:08:22.169Z,3.63
2018-07-08T18:13:24.773Z,2.83
2018-07-08T18:18:28.124Z,1.70
2018-07-08T18:23:30.694Z,1.93
2018-07-08T18:28:33.251Z,2.43
2018-07-08T18:33:35.905Z,3.70
2018-07-08T18:38:39.526Z,2.50
2018-07-08T18:43:42.898Z,2.20
2018-07-08T18:48:45.860Z,1.90
2018-07-08T18:53:48.418Z,4.37
2018-07-08T18:58:51.045Z,7.53
2018-07-08T19:03:53.587Z,2.10
2018-07-08T19:08:57.329Z,1.90
2018-07-08T19:13:59.966Z,3.00
2018-07-08T19:19:02.609Z,7.23
2018-07-08T19:24:05.703Z,2.30
2018-07-08T19:29:08.328Z,2.17
2018-07-08T19:34:11.024Z,4.40
2018-07-08T19:39:13.619Z,2.23
2018-07-08T19:44:16.940Z,3.23
2018-07-08T19:49:19.571Z,3.90
2018-07-08T19:54:22.189Z,3.63
2018-07-08T19:59:24.726Z,2.67
2018-07-08T20:09:37.175Z,2.60
2018-07-08T20:14:39.836Z,2.23
2018-07-08T20:19:42.963Z,5.23
2018-07-08T20:24:45.540Z,2.00
2018-07-08T20:29:48.080Z,3.43
2018-07-08T20:34:50.616Z,2.53
2018-07-08T20:39:53.197Z,5.07
2018-07-08T20:44:55.809Z,2.47
2018-07-08T20:49:58.417Z,3.20
2018-07-08T20:55:00.971Z,3.10
2018-07-08T21:00:04.387Z,2.77
2018-07-08T21:05:07.025Z,2.97
2018-07-08T21:10:10.277Z,3.87
2018-07-08T21:15:12.835Z,3.00
2018-07-08T21:20:15.414Z,5.40
2018-07-08T21:25:18.006Z,10.33
2018-07-08T21:30:20.546Z,5.20
2018-07-08T21:35:23.134Z,2.67
2018-07-08T21:40:25.669Z,2.50
2018-07-08T21:45:28.241Z,4.07
2018-07-08T21:50:30.893Z,4.53
2018-07-08T21:55:33.410Z,2.97
2018-07-08T22:00:35.942Z,2.27
2018-07-08T22:05:38.537Z,6.07
2018-07-08T22:10:41.066Z,3.47
2018-07-08T22:15:43.696Z,3.50
2018-07-08T22:20:46.269Z,3.63
2018-07-08T22:25:48.829Z,2.87
2018-07-08T22:30:51.329Z,5.03
2018-07-08T22:35:53.914Z,4.37
2018-07-08T22:40:57.927Z,3.47
2018-07-08T22:46:00.463Z,2.80
2018-07-08T22:51:02.983Z,2.40
2018-07-08T22:56:05.572Z,115.73
2018-07-08T23:01:32.825Z,74.17
2018-07-08T23:06:35.359Z,45.97
2018-07-08T23:11:38.537Z,36.43
2018-07-08T23:16:41.072Z,18.93
2018-07-08T23:21:43.600Z,10.70
2018-07-08T23:26:46.164Z,2.70
2018-07-08T23:31:48.791Z,3.60
2018-07-08T23:36:51.327Z,4.60
2018-07-08T23:41:53.854Z,4.53
2018-07-08T23:46:56.385Z,2.90
2018-07-08T23:51:59.118Z,3.50
2018-07-08T23:57:02.859Z,4.20
